^^
Grace C. Lehan Memorial Weather Station Historical Data
Daily Summary for June 20, 2022 Units:  Metric    English   Both
Daily Weekly Monthly Yearly
  High: Low: Average:
Temperature: 26.4 °C 14.3 °C 20.7 °C
Dew Point: 12.3 °C 5.9 °C 9.4 °C
Humidity: 65.9% 32.8% 50%
Wind Speed: 14.5km/h 0km/h 2.1km/h
Wind Gust: 32.2km/h - -
Wind- - WNW
Pressure: 1018.2 hPa 1014.8 hPa -
Precipitation: 0 mm    
 
 
Tabular Data for June 20, 2022
Time Temperature Dew Point Pressure Wind Wind Speed Wind Gust Humidity Rainfall Rate (Hourly) solar
00:00 16.1 °C 5.9 °C 1015.1 hPa WNW 6.4 km/h 16.1 km/h 51% 0 mm 0 W/m2
00:09 16 °C 6.1 °C 1015.1 hPa West 3.7 km/h 16.1 km/h 51.9% 0 mm 0 W/m2
00:14 15.9 °C 6.1 °C 1015.1 hPa WSW 1.4 km/h 16.1 km/h 52% 0 mm 0 W/m2
00:19 15.9 °C 6.2 °C 1015.1 hPa West 2.1 km/h 16.1 km/h 52.4% 0 mm 0 W/m2
00:24 15.8 °C 6.2 °C 1015.1 hPa West 1.9 km/h 16.1 km/h 52.5% 0 mm 0 W/m2
00:29 15.8 °C 6.2 °C 1015.1 hPa West 2.1 km/h 16.1 km/h 53% 0 mm 0 W/m2
00:34 15.7 °C 6.2 °C 1015.1 hPa West 2.4 km/h 17.7 km/h 53% 0 mm 0 W/m2
00:39 15.7 °C 6.3 °C 1015.1 hPa West 2.6 km/h 17.7 km/h 53.9% 0 mm 0 W/m2
00:44 15.6 °C 6.3 °C 1015.1 hPa West 2.9 km/h 17.7 km/h 54% 0 mm 0 W/m2
00:49 15.6 °C 6.5 °C 1015.1 hPa West 1.9 km/h 17.7 km/h 54.8% 0 mm 0 W/m2
00:54 15.4 °C 6.4 °C 1015.1 hPa West 3.7 km/h 19.3 km/h 55% 0 mm 0 W/m2
00:59 15.4 °C 6.4 °C 1015.1 hPa WSW 2.7 km/h 19.3 km/h 55% 0 mm 0 W/m2
01:04 15.4 °C 6.4 °C 1015.1 hPa West 2.4 km/h 19.3 km/h 55% 0 mm 0 W/m2
01:09 15.4 °C 6.4 °C 1015.1 hPa West 1.6 km/h 17.7 km/h 55.1% 0 mm 0 W/m2
01:14 15.4 °C 6.6 °C 1014.8 hPa West 3.7 km/h 20.9 km/h 55.8% 0 mm 0 W/m2
01:19 15.4 °C 6.7 °C 1014.8 hPa West 4.3 km/h 20.9 km/h 56% 0 mm 0 W/m2
01:24 15.4 °C 6.7 °C 1014.8 hPa WNW 4.5 km/h 20.9 km/h 56% 0 mm 0 W/m2
01:29 15.3 °C 6.8 °C 1014.8 hPa WNW 6 km/h 22.5 km/h 56.6% 0 mm 0 W/m2
01:34 15.3 °C 6.9 °C 1014.8 hPa West 5.1 km/h 22.5 km/h 57.1% 0 mm 0 W/m2
01:39 15.3 °C 7.1 °C 1014.8 hPa West 8 km/h 27.4 km/h 58% 0 mm 0 W/m2
01:44 15.3 °C 7.1 °C 1014.8 hPa WNW 7.9 km/h 32.2 km/h 58% 0 mm 0 W/m2
01:49 15.3 °C 7.3 °C 1014.8 hPa WNW 6.6 km/h 32.2 km/h 58.7% 0 mm 0 W/m2
01:54 15.3 °C 7.4 °C 1014.8 hPa WNW 10.5 km/h 32.2 km/h 59% 0 mm 0 W/m2
01:59 15.3 °C 7.4 °C 1014.8 hPa WNW 4.7 km/h 32.2 km/h 59.3% 0 mm 0 W/m2
02:04 15.3 °C 7.6 °C 1014.8 hPa WNW 6.8 km/h 32.2 km/h 60% 0 mm 0 W/m2
02:09 15.3 °C 7.6 °C 1014.8 hPa WNW 4.3 km/h 25.7 km/h 60% 0 mm 0 W/m2
02:14 15.3 °C 7.6 °C 1014.8 hPa WNW 7.6 km/h 25.7 km/h 60% 0 mm 0 W/m2
02:19 15.3 °C 7.6 °C 1014.8 hPa West 6.8 km/h 25.7 km/h 60% 0 mm 0 W/m2
02:24 15.3 °C 7.6 °C 1015.1 hPa WNW 5.6 km/h 25.7 km/h 60% 0 mm 0 W/m2
02:29 15.3 °C 7.7 °C 1015.1 hPa WNW 4.7 km/h 25.7 km/h 60.2% 0 mm 0 W/m2
02:34 15.3 °C 7.7 °C 1015.1 hPa West 1.6 km/h 25.7 km/h 60.1% 0 mm 0 W/m2
02:39 15.3 °C 7.8 °C 1015.1 hPa WNW 2.1 km/h 16.1 km/h 61% 0 mm 0 W/m2
02:44 15.3 °C 7.8 °C 1015.1 hPa NW 0.2 km/h 16.1 km/h 60.8% 0 mm 0 W/m2
02:49 15.3 °C 7.8 °C 1015.5 hPa Calm   16.1 km/h 61% 0 mm 0 W/m2
02:54 15.2 °C 7.8 °C 1015.5 hPa Calm   16.1 km/h 61.4% 0 mm 0 W/m2
02:59 15.1 °C 7.8 °C 1015.5 hPa Calm   16.1 km/h 61.7% 0 mm 0 W/m2
03:04 15 °C 7.8 °C 1015.1 hPa NW 0.2 km/h 16.1 km/h 62% 0 mm 0 W/m2
03:09 14.9 °C 7.8 °C 1015.1 hPa Calm   3.2 km/h 62.2% 0 mm 0 W/m2
03:14 14.9 °C 7.7 °C 1015.1 hPa Calm   3.2 km/h 62.1% 0 mm 0 W/m2
03:19 14.8 °C 7.8 °C 1015.5 hPa Calm   3.2 km/h 62.9% 0 mm 0 W/m2
03:24 14.8 °C 7.8 °C 1015.5 hPa Calm   3.2 km/h 62.9% 0 mm 0 W/m2
03:29 14.8 °C 7.8 °C 1015.5 hPa NW 0.3 km/h 3.2 km/h 63% 0 mm 0 W/m2
03:34 14.8 °C 7.9 °C 1015.5 hPa Calm   3.2 km/h 63% 0 mm 0 W/m2
03:39 14.8 °C 7.9 °C 1015.5 hPa Calm   1.6 km/h 63% 0 mm 0 W/m2
03:44 14.8 °C 7.8 °C 1015.5 hPa NW 0.6 km/h 4.8 km/h 63% 0 mm 0 W/m2
03:49 14.8 °C 7.9 °C 1015.5 hPa NW 0.3 km/h 4.8 km/h 63.4% 0 mm 0 W/m2
03:54 14.8 °C 8.1 °C 1015.5 hPa NW 0.6 km/h 4.8 km/h 64% 0 mm 0 W/m2
03:59 14.8 °C 8.1 °C 1015.5 hPa NW 1.3 km/h 8 km/h 64% 0 mm 0 W/m2
04:00 14.8 °C 8.1 °C 1015.5 hPa NNW 3.2 km/h 8 km/h 64% 0 mm 0 W/m2
04:09 14.7 °C 8 °C 1015.5 hPa NNW 0.2 km/h 3.2 km/h 64% 0 mm 0 W/m2
04:14 14.7 °C 8 °C 1015.5 hPa NNW 1.6 km/h 9.7 km/h 64.2% 0 mm 0 W/m2
04:19 14.6 °C 7.9 °C 1015.8 hPa NW 0.3 km/h 9.7 km/h 64.2% 0 mm 0 W/m2
04:24 14.6 °C 8 °C 1015.8 hPa NW 0.2 km/h 9.7 km/h 64.4% 0 mm 0 W/m2
04:29 14.6 °C 8.1 °C 1015.8 hPa Calm   9.7 km/h 65% 0 mm 0 W/m2
04:34 14.5 °C 8 °C 1015.8 hPa NW 0.6 km/h 9.7 km/h 64.9% 0 mm 0 W/m2
04:39 14.4 °C 7.7 °C 1015.8 hPa Calm   6.4 km/h 64% 0 mm 0 W/m2
04:44 14.4 °C 7.8 °C 1015.8 hPa NW 0.2 km/h 6.4 km/h 64.5% 0 mm 0 W/m2
04:49 14.4 °C 7.9 °C 1015.8 hPa NW 0.3 km/h 6.4 km/h 65% 0 mm 0 W/m2
04:54 14.4 °C 7.9 °C 1015.8 hPa NW 0.3 km/h 6.4 km/h 65% 0 mm 0 W/m2
04:59 14.4 °C 7.9 °C 1015.8 hPa Calm   6.4 km/h 65% 0 mm 0 W/m2
05:04 14.4 °C 7.9 °C 1015.8 hPa Calm   6.4 km/h 65% 0 mm 0 W/m2
05:09 14.3 °C 7.8 °C 1016.1 hPa NW 0.2 km/h 4.8 km/h 64.6% 0 mm 0 W/m2
05:14 14.3 °C 7.8 °C 1016.1 hPa NW 1.3 km/h 8 km/h 65% 0 mm 0 W/m2
05:19 14.3 °C 7.9 °C 1016.5 hPa WNW 1.3 km/h 9.7 km/h 65.1% 0 mm 5 W/m2
05:24 14.3 °C 7.8 °C 1016.5 hPa WNW 1.6 km/h 11.3 km/h 65% 0 mm 7 W/m2
05:29 14.3 °C 7.8 °C 1016.5 hPa West 0.2 km/h 11.3 km/h 65% 0 mm 11 W/m2
05:34 14.4 °C 7.9 °C 1016.5 hPa Calm   11.3 km/h 65% 0 mm 12 W/m2
05:39 14.3 °C 7.9 °C 1016.8 hPa Calm   1.6 km/h 65% 0 mm 14 W/m2
05:44 14.3 °C 7.8 °C 1016.8 hPa WNW 1.9 km/h 9.7 km/h 65% 0 mm 18 W/m2
05:49 14.4 °C 7.9 °C 1016.8 hPa WNW 1.1 km/h 9.7 km/h 65% 0 mm 21 W/m2
05:54 14.4 °C 7.9 °C 1016.8 hPa Calm   9.7 km/h 65% 0 mm 26 W/m2
05:59 14.4 °C 7.9 °C 1017.2 hPa NW 0.5 km/h 9.7 km/h 65% 0 mm 28 W/m2
06:04 14.4 °C 7.9 °C 1017.2 hPa NW 0.3 km/h 9.7 km/h 65% 0 mm 30 W/m2
06:09 14.5 °C 8 °C 1017.2 hPa Calm   6.4 km/h 65% 0 mm 30 W/m2
06:14 14.6 °C 8.1 °C 1017.5 hPa Calm   6.4 km/h 65% 0 mm 40 W/m2
06:19 14.6 °C 8.2 °C 1017.5 hPa Calm   6.4 km/h 65.2% 0 mm 42 W/m2
06:24 14.7 °C 8.4 °C 1017.5 hPa Calm   6.4 km/h 65.9% 0 mm 42 W/m2
06:29 14.8 °C 8.3 °C 1017.5 hPa NW 0.3 km/h 6.4 km/h 65.3% 0 mm 49 W/m2
06:34 14.9 °C 8.4 °C 1017.5 hPa NW 0.2 km/h 6.4 km/h 65.2% 0 mm 70 W/m2
06:39 15 °C 8.6 °C 1017.5 hPa Calm   3.2 km/h 65.3% 0 mm 188 W/m2
06:44 15.2 °C 8.8 °C 1017.5 hPa NW 0.8 km/h 6.4 km/h 65.4% 0 mm 216 W/m2
06:49 15.6 °C 8.9 °C 1017.5 hPa WNW 1.3 km/h 6.4 km/h 64.3% 0 mm 241 W/m2
06:54 16 °C 9.2 °C 1017.5 hPa WNW 0.8 km/h 6.4 km/h 63.7% 0 mm 264 W/m2
06:59 16.6 °C 9.4 °C 1017.5 hPa WNW 0.6 km/h 6.4 km/h 62.6% 0 mm 281 W/m2
07:04 17 °C 9.6 °C 1017.8 hPa WNW 0.3 km/h 6.4 km/h 61.7% 0 mm 294 W/m2
07:09 17.4 °C 9.6 °C 1017.8 hPa WNW 0.5 km/h 4.8 km/h 60.1% 0 mm 288 W/m2
07:14 17.7 °C 9.7 °C 1017.8 hPa NW 0.5 km/h 6.4 km/h 59.7% 0 mm 330 W/m2
07:19 18 °C 10.1 °C 1017.8 hPa Calm   6.4 km/h 59.5% 0 mm 352 W/m2
07:24 18.4 °C 9.9 °C 1017.8 hPa NNW 0.3 km/h 6.4 km/h 57.9% 0 mm 366 W/m2
07:29 18.6 °C 10.1 °C 1017.8 hPa NNW 1 km/h 19.3 km/h 57.7% 0 mm 387 W/m2
07:34 18.8 °C 10 °C 1017.8 hPa NNW 1.4 km/h 19.3 km/h 56.4% 0 mm 413 W/m2
07:39 19.1 °C 10.3 °C 1017.8 hPa WNW 0.8 km/h 16.1 km/h 56.5% 0 mm 432 W/m2
07:44 19.5 °C 10.6 °C 1017.8 hPa NNW 0.5 km/h 16.1 km/h 56.3% 0 mm 473 W/m2
07:49 19.8 °C 10.7 °C 1017.8 hPa NW 0.5 km/h 16.1 km/h 55.6% 0 mm 492 W/m2
07:54 20.2 °C 10.9 °C 1017.8 hPa NW 1.6 km/h 16.1 km/h 55% 0 mm 510 W/m2
07:59 20.4 °C 10.8 °C 1017.8 hPa NW 1 km/h 16.1 km/h 53.7% 0 mm 494 W/m2
08:09 20.9 °C 11.1 °C 1017.8 hPa NW 0.3 km/h 8 km/h 53.5% 0 mm 529 W/m2
08:14 20.9 °C 10.9 °C 1017.8 hPa WNW 3.7 km/h 12.9 km/h 52.4% 0 mm 552 W/m2
08:19 21 °C 11.2 °C 1017.8 hPa NW 0.3 km/h 12.9 km/h 53.3% 0 mm 561 W/m2
08:24 21.2 °C 11.6 °C 1017.8 hPa North 0.8 km/h 12.9 km/h 54.3% 0 mm 564 W/m2
08:29 21.3 °C 11.3 °C 1017.8 hPa NNW 0.3 km/h 12.9 km/h 52.9% 0 mm 580 W/m2
08:34 21.5 °C 11.5 °C 1017.8 hPa NW 1.4 km/h 12.9 km/h 52.8% 0 mm 610 W/m2
08:39 21.7 °C 11.2 °C 1017.8 hPa WNW 3.5 km/h 12.9 km/h 51.2% 0 mm 628 W/m2
08:44 21.8 °C 11.6 °C 1017.8 hPa NW 0.6 km/h 12.9 km/h 52.2% 0 mm 642 W/m2
08:49 22.1 °C 11.6 °C 1017.8 hPa NW 0.3 km/h 12.9 km/h 51.5% 0 mm 649 W/m2
08:54 22.3 °C 11.8 °C 1017.8 hPa NW 1.3 km/h 12.9 km/h 51.2% 0 mm 661 W/m2
08:59 22.6 °C 11.9 °C 1017.5 hPa NW 0.6 km/h 12.9 km/h 51.1% 0 mm 679 W/m2
09:04 22.7 °C 11.6 °C 1017.8 hPa West 4.5 km/h 17.7 km/h 49.5% 0 mm 689 W/m2
09:09 22.7 °C 11.7 °C 1017.8 hPa West 1.9 km/h 17.7 km/h 49.7% 0 mm 701 W/m2
09:14 22.9 °C 12.3 °C 1017.8 hPa WNW 0.5 km/h 17.7 km/h 51.2% 0 mm 714 W/m2
09:19 23.4 °C 12.1 °C 1017.8 hPa WNW 1.4 km/h 17.7 km/h 49% 0 mm 729 W/m2
09:24 23.6 °C 11.6 °C 1017.8 hPa WNW 2.1 km/h 17.7 km/h 46.9% 0 mm 744 W/m2
09:29 23.7 °C 11.8 °C 1017.8 hPa WNW 4.8 km/h 17.7 km/h 47.2% 0 mm 747 W/m2
09:34 23.7 °C 11.3 °C 1017.8 hPa WNW 3.7 km/h 17.7 km/h 45.9% 0 mm 761 W/m2
09:39 23.6 °C 11.3 °C 1017.8 hPa WNW 3.7 km/h 14.5 km/h 45.9% 0 mm 786 W/m2
09:44 23.5 °C 11.3 °C 1017.8 hPa WNW 2.6 km/h 14.5 km/h 46.3% 0 mm 782 W/m2
09:49 23.6 °C 11.7 °C 1017.8 hPa NW 1.1 km/h 14.5 km/h 47.2% 0 mm 805 W/m2
09:54 23.8 °C 12.1 °C 1017.5 hPa NW 3.7 km/h 14.5 km/h 47.9% 0 mm 810 W/m2
09:59 24 °C 11.6 °C 1017.5 hPa WNW 5.8 km/h 16.1 km/h 45.7% 0 mm 819 W/m2
10:04 23.9 °C 11.7 °C 1017.8 hPa NW 1.8 km/h 16.1 km/h 46.3% 0 mm 833 W/m2
10:09 24.2 °C 11.8 °C 1017.8 hPa WNW 3.1 km/h 11.3 km/h 45.8% 0 mm 847 W/m2
10:14 24.3 °C 11.1 °C 1017.8 hPa West 3.7 km/h 16.1 km/h 43.6% 0 mm 854 W/m2
10:19 24.3 °C 11.2 °C 1017.8 hPa WNW 2.7 km/h 19.3 km/h 44% 0 mm 860 W/m2
10:24 24.4 °C 12 °C 1017.8 hPa WNW 1.4 km/h 19.3 km/h 45.8% 0 mm 872 W/m2
10:29 24.7 °C 10.5 °C 1017.8 hPa WNW 4.7 km/h 22.5 km/h 40.9% 0 mm 882 W/m2
10:34 24.8 °C 9.9 °C 1017.8 hPa WNW 5 km/h 22.5 km/h 39.1% 0 mm 898 W/m2
10:39 24.8 °C 9.8 °C 1017.8 hPa WNW 6 km/h 22.5 km/h 38.8% 0 mm 916 W/m2
10:44 24.7 °C 9.5 °C 1017.8 hPa NW 5.5 km/h 30.6 km/h 38.2% 0 mm 914 W/m2
10:49 24.6 °C 8.8 °C 1017.5 hPa NW 3.7 km/h 30.6 km/h 36.7% 0 mm 921 W/m2
10:54 24.6 °C 9.9 °C 1017.5 hPa WNW 3.4 km/h 30.6 km/h 39.5% 0 mm 928 W/m2
10:59 24.9 °C 10.1 °C 1017.5 hPa NNW 3.4 km/h 30.6 km/h 39.1% 0 mm 933 W/m2
11:04 25.1 °C 9.3 °C 1017.5 hPa WNW 5.1 km/h 30.6 km/h 37% 0 mm 940 W/m2
11:09 25.2 °C 9.7 °C 1017.5 hPa NNW 2.6 km/h 20.9 km/h 37.7% 0 mm 953 W/m2
11:14 25.3 °C 9.7 °C 1017.5 hPa WNW 6.1 km/h 29 km/h 37.3% 0 mm 960 W/m2
11:19 25.3 °C 9.4 °C 1017.5 hPa WNW 3.2 km/h 29 km/h 36.7% 0 mm 962 W/m2
11:24 25.2 °C 9.2 °C 1017.5 hPa WNW 4.7 km/h 29 km/h 36.3% 0 mm 960 W/m2
11:29 25.1 °C 9.8 °C 1017.5 hPa WNW 1.9 km/h 29 km/h 38% 0 mm 967 W/m2
11:34 25.3 °C 10.2 °C 1017.5 hPa NW 2.7 km/h 29 km/h 38.6% 0 mm 983 W/m2
11:39 25.4 °C 10.2 °C 1017.5 hPa NW 1.4 km/h 20.9 km/h 38.2% 0 mm 983 W/m2
11:44 25.4 °C 8.9 °C 1017.5 hPa WNW 6.8 km/h 22.5 km/h 35% 0 mm 981 W/m2
11:49 25.3 °C 9.2 °C 1017.5 hPa NW 2.7 km/h 22.5 km/h 36% 0 mm 984 W/m2
11:54 25.2 °C 9.1 °C 1017.5 hPa WNW 3.4 km/h 22.5 km/h 36.1% 0 mm 991 W/m2
11:59 25.2 °C 10.2 °C 1017.5 hPa NW 2.7 km/h 22.5 km/h 38.8% 0 mm 998 W/m2
12:09 25.6 °C 9.7 °C 1017.5 hPa NW 3.1 km/h 16.1 km/h 36.8% 0 mm 995 W/m2
12:14 25.7 °C 10.4 °C 1017.2 hPa WNW 4.7 km/h 20.9 km/h 38.3% 0 mm 995 W/m2
12:19 25.7 °C 9.6 °C 1017.5 hPa WNW 5 km/h 20.9 km/h 36.2% 0 mm 1005 W/m2
12:24 25.5 °C 9 °C 1017.5 hPa West 2.9 km/h 20.9 km/h 35.3% 0 mm 1007 W/m2
12:29 25.3 °C 9.8 °C 1017.2 hPa West 3.4 km/h 20.9 km/h 37.5% 0 mm 1005 W/m2
12:34 25.5 °C 10.7 °C 1017.2 hPa WNW 6.4 km/h 25.7 km/h 39.4% 0 mm 1004 W/m2
12:39 25.6 °C 9.4 °C 1017.2 hPa WNW 4 km/h 25.7 km/h 36.1% 0 mm 1005 W/m2
12:44 25.5 °C 10.4 °C 1017.2 hPa NW 3.2 km/h 25.7 km/h 38.7% 0 mm 1023 W/m2
12:49 25.5 °C 9.2 °C 1017.2 hPa WNW 4.5 km/h 25.7 km/h 35.7% 0 mm 1011 W/m2
12:54 25.5 °C 10.5 °C 1016.8 hPa WNW 1.3 km/h 25.7 km/h 38.9% 0 mm 1100 W/m2
12:59 25.7 °C 10.6 °C 1016.8 hPa WNW 5 km/h 25.7 km/h 38.6% 0 mm 1039 W/m2
13:04 25.6 °C 9.7 °C 1016.8 hPa West 5.3 km/h 29 km/h 36.5% 0 mm 1011 W/m2
13:09 25.6 °C 10.3 °C 1016.8 hPa WNW 2.1 km/h 29 km/h 38.3% 0 mm 1009 W/m2
13:14 25.6 °C 9.8 °C 1016.8 hPa WNW 7.2 km/h 29 km/h 36.9% 0 mm 1011 W/m2
13:19 25.4 °C 9.4 °C 1016.8 hPa WNW 10.6 km/h 29 km/h 36.5% 0 mm 1014 W/m2
13:24 25.2 °C 9.4 °C 1016.8 hPa WNW 1.8 km/h 29 km/h 36.8% 0 mm 1004 W/m2
13:29 25.3 °C 10 °C 1016.8 hPa NW 1.6 km/h 29 km/h 38% 0 mm 1009 W/m2
13:34 25.5 °C 10.3 °C 1016.8 hPa NW 2.6 km/h 29 km/h 38.4% 0 mm 1011 W/m2
13:39 25.7 °C 8.4 °C 1016.8 hPa NW 5.8 km/h 24.1 km/h 33.6% 0 mm 1004 W/m2
13:44 25.7 °C 9 °C 1016.8 hPa NW 3.4 km/h 24.1 km/h 34.8% 0 mm 997 W/m2
13:49 25.7 °C 9.6 °C 1016.8 hPa WNW 5.6 km/h 24.1 km/h 36% 0 mm 993 W/m2
13:54 25.8 °C 10.6 °C 1016.8 hPa West 0.5 km/h 24.1 km/h 38.4% 0 mm 986 W/m2
13:59 25.9 °C 10 °C 1016.8 hPa WNW 2.4 km/h 24.1 km/h 36.6% 0 mm 983 W/m2
14:04 26.1 °C 9.3 °C 1016.8 hPa NW 4.2 km/h 24.1 km/h 34.8% 0 mm 981 W/m2
14:09 26.1 °C 10 °C 1016.8 hPa WNW 2.6 km/h 16.1 km/h 36.3% 0 mm 977 W/m2
14:14 26.2 °C 9.9 °C 1017.2 hPa WNW 5.1 km/h 19.3 km/h 35.8% 0 mm 974 W/m2
14:19 26.1 °C 9.4 °C 1016.8 hPa WNW 2.9 km/h 19.3 km/h 34.9% 0 mm 972 W/m2
14:24 26 °C 9.6 °C 1016.8 hPa WNW 3.5 km/h 19.3 km/h 35.5% 0 mm 965 W/m2
14:29 25.9 °C 9.3 °C 1016.8 hPa WNW 7.4 km/h 29 km/h 35% 0 mm 990 W/m2
14:34 25.9 °C 9.8 °C 1016.8 hPa WNW 5.8 km/h 29 km/h 36.1% 0 mm 1007 W/m2
14:39 26 °C 9.8 °C 1016.8 hPa NW 2.3 km/h 24.1 km/h 36.2% 0 mm 984 W/m2
14:44 26.1 °C 10 °C 1016.8 hPa NW 3.2 km/h 24.1 km/h 36.5% 0 mm 942 W/m2
14:49 26.1 °C 9.7 °C 1016.8 hPa WNW 7.2 km/h 24.1 km/h 35.5% 0 mm 930 W/m2
14:54 26.2 °C 9.6 °C 1016.8 hPa WNW 5.1 km/h 24.1 km/h 35.2% 0 mm 921 W/m2
14:59 26.2 °C 9.6 °C 1016.8 hPa WNW 1.4 km/h 24.1 km/h 35.4% 0 mm 911 W/m2
15:04 26.2 °C 10.7 °C 1016.8 hPa NW 5.6 km/h 24.1 km/h 37.8% 0 mm 914 W/m2
15:09 26.2 °C 9.7 °C 1016.8 hPa NNW 1.8 km/h 22.5 km/h 35.5% 0 mm 916 W/m2
15:14 26.2 °C 9.6 °C 1016.8 hPa NNW 1.8 km/h 22.5 km/h 35.2% 0 mm 909 W/m2
15:19 26.2 °C 10.2 °C 1016.5 hPa WNW 5.5 km/h 22.5 km/h 36.6% 0 mm 881 W/m2
15:24 26.3 °C 9.6 °C 1016.5 hPa West 3.7 km/h 24.1 km/h 35% 0 mm 863 W/m2
15:29 26.3 °C 10.1 °C 1016.5 hPa NW 2.4 km/h 24.1 km/h 36.1% 0 mm 856 W/m2
15:34 26.2 °C 9.1 °C 1016.5 hPa NW 3.7 km/h 24.1 km/h 33.8% 0 mm 842 W/m2
15:39 26.2 °C 9.7 °C 1016.8 hPa WNW 4.3 km/h 17.7 km/h 35.4% 0 mm 828 W/m2
15:44 26.2 °C 9.3 °C 1016.5 hPa NW 2.7 km/h 17.7 km/h 34.5% 0 mm 817 W/m2
15:49 26.2 °C 9.9 °C 1016.5 hPa WNW 3.1 km/h 17.7 km/h 35.7% 0 mm 802 W/m2
15:54 26.4 °C 9.7 °C 1016.5 hPa WNW 7.1 km/h 20.9 km/h 34.9% 0 mm 791 W/m2
15:59 26.3 °C 9.4 °C 1016.5 hPa WNW 9 km/h 30.6 km/h 34.5% 0 mm 784 W/m2
16:00 26.3 °C 8.8 °C 1016.5 hPa NW 14.5 km/h 30.6 km/h 33% 0 mm 765 W/m2
16:09 26.1 °C 9.1 °C 1016.5 hPa West 3.1 km/h 16.1 km/h 34.2% 0 mm 756 W/m2
16:14 26.1 °C 9.3 °C 1016.5 hPa WNW 4.3 km/h 16.1 km/h 34.7% 0 mm 744 W/m2
16:19 26.1 °C 9.1 °C 1016.5 hPa WNW 1.9 km/h 16.1 km/h 34.3% 0 mm 63 W/m2
16:24 26 °C 9.2 °C 1016.5 hPa NW 1.1 km/h 16.1 km/h 34.5% 0 mm 65 W/m2
16:29 25.9 °C 8.9 °C 1016.8 hPa WNW 3.7 km/h 16.1 km/h 34.2% 0 mm 60 W/m2
16:34 25.9 °C 9.2 °C 1016.5 hPa NW 1.9 km/h 16.1 km/h 34.7% 0 mm 62 W/m2
16:39 25.9 °C 8.9 °C 1016.5 hPa NW 3.5 km/h 16.1 km/h 34.1% 0 mm 58 W/m2
16:44 25.9 °C 8.3 °C 1016.5 hPa North 2.6 km/h 19.3 km/h 32.8% 0 mm 58 W/m2
16:49 25.8 °C 9.1 °C 1016.5 hPa NW 1.1 km/h 19.3 km/h 34.9% 0 mm 58 W/m2
16:54 25.8 °C 8.9 °C 1016.5 hPa NNW 1.3 km/h 19.3 km/h 34.4% 0 mm 58 W/m2
16:59 25.7 °C 8.6 °C 1016.5 hPa Calm   19.3 km/h 33.8% 0 mm 67 W/m2
17:04 25.6 °C 8.3 °C 1016.5 hPa ENE 0.3 km/h 19.3 km/h 33.3% 0 mm 69 W/m2
17:09 25.6 °C 8.7 °C 1016.5 hPa NW 1.1 km/h 8 km/h 34.4% 0 mm 70 W/m2
17:14 25.6 °C 8.9 °C 1016.5 hPa NW 5.6 km/h 19.3 km/h 34.8% 0 mm 70 W/m2
17:18 25.7 °C 8.7 °C 1016.5 hPa WNW 2.9 km/h 19.3 km/h 34.2% 0 mm 62 W/m2
17:30 25.7 °C 8.7 °C 1016.1 hPa NW 3.2 km/h 20.9 km/h 34% 0 mm 61 W/m2
18:00 25.6 °C 9.4 °C 1016.1 hPa Calm   17.7 km/h 36% 0 mm 75 W/m2
18:30 25.2 °C 10.2 °C 1016.1 hPa Calm   9.7 km/h 39% 0 mm 67 W/m2
19:00 24.9 °C 10.4 °C 1016.5 hPa Calm   9.7 km/h 40% 0 mm 64 W/m2
19:30 24.4 °C 10.7 °C 1016.5 hPa Calm   6.4 km/h 42% 0 mm 51 W/m2
20:04 23.6 °C 11.4 °C 1016.8 hPa Calm   6.4 km/h 46.6% 0 mm 51 W/m2
20:09 23.3 °C 11.4 °C 1016.8 hPa WNW 0.2 km/h 1.6 km/h 47% 0 mm 21 W/m2
20:14 23.2 °C 11.3 °C 1016.8 hPa Calm   1.6 km/h 47% 0 mm 16 W/m2
20:19 23 °C 11.4 °C 1016.8 hPa Calm   1.6 km/h 47.9% 0 mm 9 W/m2
20:24 22.9 °C 11.5 °C 1016.8 hPa Calm   1.6 km/h 48.7% 0 mm 7 W/m2
20:29 22.7 °C 11.4 °C 1017.2 hPa Calm   1.6 km/h 49% 0 mm 0 W/m2
20:34 22.5 °C 11.5 °C 1017.2 hPa Calm   1.6 km/h 49.9% 0 mm 0 W/m2
20:39 22.3 °C 11.7 °C 1017.2 hPa Calm     50.9% 0 mm 0 W/m2
20:44 22.1 °C 11.5 °C 1017.2 hPa Calm     51% 0 mm 0 W/m2
20:49 21.9 °C 11.4 °C 1017.2 hPa Calm     51.3% 0 mm 0 W/m2
20:54 21.7 °C 11.4 °C 1017.2 hPa Calm     52% 0 mm 0 W/m2
20:59 21.5 °C 11.3 °C 1017.2 hPa Calm     52% 0 mm 0 W/m2
21:04 21.3 °C 11.1 °C 1017.2 hPa Calm     52% 0 mm 0 W/m2
21:09 21.2 °C 11.1 °C 1017.2 hPa Calm     52.5% 0 mm 0 W/m2
21:14 21 °C 11 °C 1017.2 hPa Calm     52.7% 0 mm 0 W/m2
21:19 20.9 °C 11 °C 1017.2 hPa Calm     53% 0 mm 0 W/m2
21:24 20.8 °C 10.9 °C 1017.2 hPa Calm     53% 0 mm 0 W/m2
21:29 20.7 °C 10.9 °C 1017.5 hPa Calm     53.6% 0 mm 0 W/m2
21:34 20.6 °C 10.9 °C 1017.5 hPa Calm     54% 0 mm 0 W/m2
21:39 20.4 °C 10.8 °C 1017.5 hPa Calm     54% 0 mm 0 W/m2
21:44 20.3 °C 10.7 °C 1017.5 hPa Calm     54% 0 mm 0 W/m2
21:49 20.3 °C 10.9 °C 1017.5 hPa Calm     54.9% 0 mm 0 W/m2
21:54 20.2 °C 11.2 °C 1017.5 hPa Calm     56% 0 mm 0 W/m2
21:59 20.1 °C 11.1 °C 1017.5 hPa Calm     56% 0 mm 0 W/m2
22:04 20.1 °C 10.8 °C 1017.5 hPa Calm     55.2% 0 mm 0 W/m2
22:09 20 °C 10.7 °C 1017.5 hPa Calm     55% 0 mm 0 W/m2
22:14 19.9 °C 10.7 °C 1017.5 hPa Calm     55% 0 mm 0 W/m2
22:19 19.9 °C 10.6 °C 1017.5 hPa Calm     55% 0 mm 0 W/m2
22:24 19.9 °C 10.6 °C 1017.5 hPa Calm     55% 0 mm 0 W/m2
22:29 19.9 °C 10.6 °C 1017.5 hPa Calm     55% 0 mm 0 W/m2
22:34 19.9 °C 10.6 °C 1017.5 hPa Calm     55% 0 mm 0 W/m2
22:39 19.9 °C 10.6 °C 1017.5 hPa Calm     55% 0 mm 0 W/m2
22:44 19.8 °C 10.7 °C 1017.5 hPa Calm     55.6% 0 mm 0 W/m2
22:49 19.8 °C 10.8 °C 1017.8 hPa Calm     56% 0 mm 0 W/m2
22:54 19.7 °C 10.7 °C 1017.5 hPa Calm     56% 0 mm 0 W/m2
22:59 19.7 °C 10.7 °C 1017.8 hPa Calm     56% 0 mm 0 W/m2
23:04 19.6 °C 10.6 °C 1017.5 hPa Calm     56% 0 mm 0 W/m2
23:09 19.6 °C 10.6 °C 1017.5 hPa Calm     56% 0 mm 0 W/m2
23:14 19.5 °C 10.7 °C 1017.8 hPa Calm     56.7% 0 mm 0 W/m2
23:19 19.4 °C 11.1 °C 1017.8 hPa Calm     58.7% 0 mm 0 W/m2
23:24 19.3 °C 11.2 °C 1017.8 hPa Calm     59.2% 0 mm 0 W/m2
23:29 19.2 °C 11.4 °C 1017.8 hPa Calm     60.3% 0 mm 0 W/m2
23:34 19.2 °C 11.2 °C 1017.8 hPa Calm     60% 0 mm 0 W/m2
23:39 19.1 °C 11.3 °C 1017.8 hPa Calm     60.7% 0 mm 0 W/m2
23:44 19.1 °C 11.4 °C 1017.8 hPa Calm     61.3% 0 mm 0 W/m2
23:49 19 °C 11.3 °C 1017.8 hPa Calm     61.2% 0 mm 0 W/m2
23:54 18.9 °C 11.3 °C 1017.8 hPa Calm     61.2% 0 mm 0 W/m2
23:59 18.9 °C 11.3 °C 1018.2 hPa Calm     61.6% 0 mm 0 W/m2
Hartford County Weather
Compliments of Weather Underground - 4 mb